createdAt,value
2022-10-28T00:03:53.007Z,63.33
2022-10-28T00:08:58.715Z,62.10
2022-10-28T00:14:04.664Z,61.47
2022-10-28T00:19:11.263Z,61.13
2022-10-28T00:24:16.347Z,61.83
2022-10-28T00:29:20.904Z,61.13
2022-10-28T00:34:24.345Z,64.63
2022-10-28T00:39:29.214Z,62.20
2022-10-28T00:44:50.782Z,53.90
2022-10-28T00:49:58.506Z,51.13
2022-10-28T00:55:04.456Z,53.65
2022-10-28T01:00:09.365Z,52.35
2022-10-28T01:05:15.629Z,48.22
2022-10-28T01:10:24.729Z,47.88
2022-10-28T01:15:35.018Z,41.95
2022-10-28T01:20:55.752Z,40.53
2022-10-28T01:26:31.318Z,38.95
2022-10-28T01:31:43.520Z,37.67
2022-10-28T01:36:57.885Z,38.63
2022-10-28T01:42:14.810Z,39.75
2022-10-28T01:47:24.199Z,39.13
2022-10-28T01:52:31.103Z,36.10
2022-10-28T01:57:37.132Z,36.38
2022-10-28T02:02:43.190Z,37.72
2022-10-28T02:07:47.316Z,37.15
2022-10-28T02:12:55.649Z,36.78
2022-10-28T02:18:13.664Z,36.90
2022-10-28T02:23:27.410Z,39.25
2022-10-28T02:28:40.435Z,37.95
2022-10-28T02:33:49.612Z,40.67
2022-10-28T02:38:57.321Z,36.10
2022-10-28T02:44:04.304Z,39.10
2022-10-28T02:49:11.763Z,39.63
2022-10-28T02:54:18.879Z,38.92
2022-10-28T02:59:25.537Z,41.33
2022-10-28T03:04:30.293Z,37.78
2022-10-28T03:09:33.627Z,36.50
2022-10-28T03:14:37.067Z,38.03
2022-10-28T03:19:41.994Z,43.50
2022-10-28T03:24:45.398Z,40.55
2022-10-28T03:29:48.804Z,36.38
2022-10-28T03:34:53.545Z,46.40
2022-10-28T03:39:56.918Z,46.45
2022-10-28T03:45:00.295Z,47.28
2022-10-28T03:50:05.665Z,44.70
2022-10-28T03:55:09.811Z,50.40
2022-10-28T04:00:14.821Z,50.00
2022-10-28T04:05:20.029Z,58.67
2022-10-28T04:10:23.480Z,55.72
2022-10-28T04:15:26.865Z,54.67
2022-10-28T04:20:32.345Z,52.17
2022-10-28T04:25:35.768Z,50.97
2022-10-28T04:30:39.191Z,46.58
2022-10-28T04:35:44.081Z,45.28
2022-10-28T04:40:49.134Z,44.95
2022-10-28T04:45:52.547Z,40.22
2022-10-28T04:50:58.349Z,40.10
2022-10-28T04:56:01.902Z,38.83
2022-10-28T05:01:10.162Z,36.78
2022-10-28T05:06:15.069Z,37.70
2022-10-28T05:11:18.467Z,40.00
2022-10-28T05:16:22.127Z,37.47
2022-10-28T05:21:26.845Z,35.72
2022-10-28T05:26:30.174Z,32.53
2022-10-28T05:31:33.919Z,30.90
2022-10-28T05:36:38.905Z,29.42
2022-10-28T05:41:42.411Z,30.45
2022-10-28T05:46:45.803Z,30.63
2022-10-28T05:51:50.494Z,29.92
2022-10-28T05:56:53.864Z,29.45
2022-10-28T06:01:57.259Z,27.77
2022-10-28T06:07:02.052Z,31.00
2022-10-28T06:12:06.869Z,29.27
2022-10-28T06:17:10.439Z,27.23
2022-10-28T06:22:17.504Z,24.67
2022-10-28T06:27:22.261Z,23.20
2022-10-28T06:32:26.243Z,21.20
2022-10-28T06:37:31.106Z,20.92
2022-10-28T06:42:34.622Z,19.58
2022-10-28T06:47:41.552Z,21.20
2022-10-28T06:52:46.652Z,21.20
2022-10-28T06:57:50.300Z,19.80
2022-10-28T07:02:56.185Z,20.98
2022-10-28T07:08:01.099Z,17.13
2022-10-28T07:13:05.051Z,15.52
2022-10-28T07:18:08.385Z,15.10
2022-10-28T07:23:13.180Z,13.23
2022-10-28T07:28:16.557Z,13.85
2022-10-28T07:33:20.246Z,13.98
2022-10-28T07:38:24.997Z,12.85
2022-10-28T07:43:28.315Z,12.95
2022-10-28T07:48:31.725Z,13.60
2022-10-28T07:53:36.432Z,12.10
2022-10-28T07:58:40.203Z,14.07
2022-10-28T08:03:43.794Z,11.23
2022-10-28T08:08:50.107Z,10.85
2022-10-28T08:13:55.314Z,10.25
2022-10-28T08:18:58.726Z,9.13
2022-10-28T08:24:03.515Z,9.55
2022-10-28T08:29:08.165Z,9.70
2022-10-28T08:34:11.604Z,9.73
2022-10-28T08:39:16.416Z,9.40
2022-10-28T08:44:43.892Z,10.60
2022-10-28T08:49:51.505Z,10.30
2022-10-28T08:55:02.120Z,10.32
2022-10-28T09:00:08.600Z,10.38
2022-10-28T09:05:21.699Z,9.35
2022-10-28T09:10:42.770Z,9.55
2022-10-28T09:15:52.184Z,10.98
2022-10-28T09:20:57.838Z,9.63
2022-10-28T09:26:13.905Z,9.50
2022-10-28T09:31:24.553Z,9.35
2022-10-28T09:36:33.488Z,9.50
2022-10-28T09:41:41.118Z,8.97
2022-10-28T09:46:48.073Z,10.15
2022-10-28T09:51:56.977Z,9.90
2022-10-28T09:57:02.964Z,8.95
2022-10-28T10:02:07.057Z,7.70
2022-10-28T10:07:15.050Z,9.70
2022-10-28T10:12:20.232Z,7.18
2022-10-28T10:17:28.356Z,8.65
2022-10-28T10:22:33.926Z,7.32
2022-10-28T10:27:38.761Z,6.88
2022-10-28T10:32:48.223Z,7.78
2022-10-28T10:37:53.665Z,8.55
2022-10-28T10:43:20.094Z,6.90
2022-10-28T10:48:23.551Z,11.82
2022-10-28T10:53:28.801Z,6.80
2022-10-28T10:58:35.572Z,7.22
2022-10-28T11:03:48.881Z,5.72
2022-10-28T11:08:58.086Z,5.90
2022-10-28T11:14:08.758Z,4.60
2022-10-28T11:19:21.526Z,5.20
2022-10-28T11:24:37.695Z,5.13
2022-10-28T11:29:42.659Z,5.13
2022-10-28T11:35:07.896Z,4.95
2022-10-28T11:40:25.525Z,4.60
2022-10-28T11:45:36.529Z,3.35
2022-10-28T11:50:55.416Z,3.90
2022-10-28T11:56:11.729Z,3.53
2022-10-28T12:01:32.950Z,4.13
2022-10-28T12:06:54.947Z,4.30
2022-10-28T12:12:13.992Z,3.97
2022-10-28T12:17:25.189Z,4.10
2022-10-28T12:22:32.385Z,4.80
2022-10-28T12:27:41.440Z,3.80
2022-10-28T12:32:47.302Z,3.87
2022-10-28T12:37:55.665Z,4.40
2022-10-28T12:43:04.797Z,3.92
2022-10-28T12:48:25.622Z,3.90
2022-10-28T12:53:36.068Z,4.13
2022-10-28T12:58:53.177Z,3.72
2022-10-28T13:03:59.018Z,4.30
2022-10-28T13:09:19.464Z,4.28
2022-10-28T13:14:42.210Z,4.30
2022-10-28T13:20:03.204Z,4.85
2022-10-28T13:25:23.596Z,4.80
2022-10-28T13:30:28.314Z,4.10
2022-10-28T13:35:33.910Z,5.10
2022-10-28T13:41:27.089Z,4.90
2022-10-28T13:47:08.215Z,4.78
2022-10-28T13:52:22.206Z,5.18
2022-10-28T13:57:32.020Z,6.10
2022-10-28T14:02:39.967Z,4.83
2022-10-28T14:07:56.953Z,4.80
2022-10-28T14:13:03.641Z,4.60
2022-10-28T14:18:42.081Z,6.00
2022-10-28T14:24:09.370Z,5.35
2022-10-28T14:29:24.829Z,5.70
2022-10-28T14:34:40.579Z,5.72
2022-10-28T14:40:02.628Z,5.60
2022-10-28T14:45:24.374Z,5.63
2022-10-28T14:50:38.392Z,5.90
2022-10-28T14:55:47.813Z,6.53
2022-10-28T15:01:10.642Z,5.90
2022-10-28T15:06:32.461Z,6.25
2022-10-28T15:11:37.967Z,6.82
2022-10-28T15:16:48.867Z,6.38
2022-10-28T15:22:06.467Z,8.52
2022-10-28T15:27:14.573Z,8.50
2022-10-28T15:32:27.838Z,10.75
2022-10-28T15:37:35.856Z,9.45
2022-10-28T15:42:45.026Z,11.07
2022-10-28T15:47:49.833Z,11.27
2022-10-28T15:52:54.827Z,12.18
2022-10-28T15:58:01.649Z,13.27
2022-10-28T16:03:08.435Z,13.73
2022-10-28T16:08:18.322Z,18.98
2022-10-28T16:18:31.075Z,15.57
2022-10-28T16:23:39.700Z,15.68
2022-10-28T16:28:45.490Z,16.80
2022-10-28T16:33:49.897Z,17.15
2022-10-28T16:38:53.260Z,17.30
2022-10-28T16:43:59.350Z,19.15
2022-10-28T16:49:02.798Z,20.63
2022-10-28T16:54:06.162Z,20.27
2022-10-28T16:59:10.945Z,20.23
2022-10-28T17:04:14.306Z,20.27
2022-10-28T17:09:17.941Z,22.48
2022-10-28T17:14:22.785Z,25.48
2022-10-28T17:19:26.378Z,24.13
2022-10-28T17:24:32.128Z,25.42
2022-10-28T17:29:37.245Z,23.92
2022-10-28T17:34:40.695Z,24.65
2022-10-28T17:39:44.205Z,30.33
2022-10-28T17:44:49.037Z,25.27
2022-10-28T17:49:52.433Z,29.65
2022-10-28T17:54:56.725Z,27.13
2022-10-28T18:00:01.516Z,36.50
2022-10-28T18:05:15.129Z,25.17
2022-10-28T18:10:18.711Z,29.67
2022-10-28T18:15:23.703Z,25.70
2022-10-28T18:20:27.060Z,25.33
2022-10-28T18:25:30.623Z,26.48
2022-10-28T18:30:36.681Z,28.88
2022-10-28T18:35:40.244Z,25.98
2022-10-28T18:40:48.035Z,25.40
2022-10-28T18:45:55.114Z,26.05
2022-10-28T18:50:59.164Z,25.98
2022-10-28T18:56:02.705Z,26.33
2022-10-28T19:01:09.810Z,25.45
2022-10-28T19:06:15.391Z,25.92
2022-10-28T19:11:19.203Z,25.45
2022-10-28T19:16:23.946Z,28.42
2022-10-28T19:21:28.879Z,29.42
2022-10-28T19:26:33.655Z,26.65
2022-10-28T19:31:47.090Z,26.58
2022-10-28T19:36:53.122Z,28.38
2022-10-28T19:42:00.675Z,27.23
2022-10-28T19:47:05.547Z,25.02
2022-10-28T19:52:08.917Z,30.83
2022-10-28T20:02:22.507Z,25.63
2022-10-28T20:07:25.955Z,23.58
2022-10-28T20:12:29.318Z,23.05
2022-10-28T20:17:34.087Z,23.77
2022-10-28T20:22:42.063Z,24.52
2022-10-28T20:27:46.284Z,24.23
2022-10-28T20:32:55.599Z,25.40
2022-10-28T20:37:59.537Z,27.30
2022-10-28T20:43:03.278Z,22.58
2022-10-28T20:48:08.272Z,22.35
2022-10-28T20:53:11.891Z,22.65
2022-10-28T20:58:15.264Z,29.30
2022-10-28T21:03:20.769Z,30.90
2022-10-28T21:08:24.094Z,27.42
2022-10-28T21:13:27.658Z,20.48
2022-10-28T21:18:32.958Z,18.65
2022-10-28T21:23:36.368Z,29.50
2022-10-28T21:28:41.440Z,25.35
2022-10-28T21:33:46.843Z,21.02
2022-10-28T21:38:54.448Z,20.95
2022-10-28T21:43:57.820Z,22.83
2022-10-28T21:49:02.563Z,21.58
2022-10-28T21:54:06.132Z,19.95
2022-10-28T21:59:09.650Z,21.92
2022-10-28T22:04:14.590Z,21.85
2022-10-28T22:09:18.036Z,22.63
2022-10-28T22:14:21.443Z,23.70
2022-10-28T22:19:26.312Z,21.58
2022-10-28T22:24:29.702Z,22.88
2022-10-28T22:29:33.236Z,26.48
2022-10-28T22:34:37.903Z,26.45
2022-10-28T22:39:41.397Z,23.50
2022-10-28T22:44:44.748Z,22.83
2022-10-28T22:49:49.495Z,20.02
2022-10-28T22:54:52.926Z,18.55
2022-10-28T22:59:56.297Z,18.27
2022-10-28T23:05:00.992Z,19.20
2022-10-28T23:10:04.985Z,17.60
2022-10-28T23:15:09.482Z,18.48
2022-10-28T23:20:14.554Z,18.13
2022-10-28T23:25:18.165Z,16.70
2022-10-28T23:30:21.639Z,19.38
2022-10-28T23:35:26.586Z,16.98
2022-10-28T23:40:30.081Z,17.60
2022-10-28T23:45:33.493Z,17.05
2022-10-28T23:50:38.256Z,17.95
2022-10-28T23:55:43.450Z,16.33
